Time;durP1;ratioP1;P1;durP2;ratioP2;P2;SDS_P1;SDS_P2;PMS_P1;PMS_P2;Temp;Humidity;BMP_temperature;BMP_pressure;BME280_temperature;BME280_humidity;BME280_pressure;Samples;Min_cycle;Max_cycle;Signal;HPM_P1;HPM_P2
2022/05/17 00:00:16;;;;;;;;;;;;;;;21.14;50.58;99589.25;5361492;26;33560;-86
2022/05/17 00:02:45;;;;;;;;;;;;;;;21.14;50.60;99588.41;5381941;26;33834;-85
2022/05/17 00:05:14;;;;;;;;;;;;;;;21.02;50.57;99575.00;5386969;26;32957;-86
2022/05/17 00:07:43;;;;;;;;;;;;;;;21.28;49.52;99581.37;5381860;26;34216;-85
2022/05/17 00:10:12;;;;;;;;;;;;;;;21.09;50.39;99575.47;5381716;26;34613;-86
2022/05/17 00:12:41;;;;;;;;;;;;;;;21.09;50.31;99568.44;5381795;26;34408;-85
2022/05/17 00:15:11;;;;;;;;;;;;;;;21.18;49.62;99567.03;5381728;26;33341;-85
2022/05/17 00:17:40;;;;;;;;;;;;;;;21.21;49.67;99558.94;5382242;26;33433;-86
2022/05/17 00:20:09;;;;;;;;;;;;;;;21.15;49.68;99566.37;5386911;26;34001;-86
2022/05/17 00:22:37;;;;;;;;;;;;;;;20.98;50.10;99560.28;5382368;26;34159;-85
2022/05/17 00:25:07;;;;;;;;;;;;;;;21.29;49.16;99561.97;5380486;26;32788;-86
2022/05/17 00:27:35;;;;;;;;;;;;;;;21.11;49.33;99557.78;5380676;26;34015;-86
2022/05/17 00:30:04;;;;;;;;;;;;;;;21.17;49.21;99554.78;5381803;26;35103;-85
2022/05/17 00:32:34;;;;;;;;;;;;;;;21.01;49.83;99554.84;5388263;26;35593;-85
2022/05/17 00:35:03;;;;;;;;;;;;;;;21.09;49.51;99557.88;5380833;26;34296;-86
2022/05/17 00:37:31;;;;;;;;;;;;;;;21.20;49.16;99554.59;5381236;26;33776;-87
2022/05/17 00:40:00;;;;;;;;;;;;;;;21.07;49.63;99551.00;5381077;26;33852;-86
2022/05/17 00:42:29;;;;;;;;;;;;;;;20.96;50.24;99551.63;5381718;26;34288;-86
2022/05/17 00:44:57;;;;;;;;;;;;;;;21.03;49.90;99552.13;5387591;26;33347;-85
2022/05/17 00:47:26;;;;;;;;;;;;;;;20.94;50.29;99550.00;5384682;26;33565;-86
2022/05/17 00:49:57;;;;;;;;;;;;;;;20.65;51.07;99555.16;5382097;26;34139;-85
2022/05/17 00:52:27;;;;;;;;;;;;;;;20.86;50.69;99543.41;5382114;26;33846;-85
2022/05/17 00:54:56;;;;;;;;;;;;;;;20.59;51.52;99550.25;5382801;26;33000;-86
2022/05/17 00:57:27;;;;;;;;;;;;;;;20.75;51.10;99544.94;5387852;26;33859;-86
2022/05/17 00:59:59;;;;;;;;;;;;;;;20.82;50.77;99549.78;5386414;26;34425;-86
2022/05/17 01:02:27;;;;;;;;;;;;;;;20.58;51.05;99544.13;5382475;26;34208;-86
2022/05/17 01:04:57;;;;;;;;;;;;;;;20.66;51.02;99541.06;5383112;26;32442;-86
2022/05/17 01:07:27;;;;;;;;;;;;;;;20.59;51.14;99532.66;5382471;26;35134;-86
2022/05/17 01:09:55;;;;;;;;;;;;;;;20.61;51.41;99535.19;5382443;26;33861;-86
2022/05/17 01:12:24;;;;;;;;;;;;;;;20.59;51.74;99529.19;5387631;26;33517;-85
2022/05/17 01:15:00;;;;;;;;;;;;;;;20.66;51.39;99530.53;5382259;26;33301;-85
2022/05/17 01:17:32;;;;;;;;;;;;;;;20.60;51.28;99525.59;5384641;26;34178;-85
2022/05/17 01:20:03;;;;;;;;;;;;;;;20.50;51.79;99530.50;5394369;26;36338;-86
2022/05/17 01:22:33;;;;;;;;;;;;;;;20.70;51.14;99524.12;5384856;26;34362;-85
2022/05/17 01:25:01;;;;;;;;;;;;;;;20.66;51.29;99519.97;5402743;26;36637;-85
2022/05/17 01:27:33;;;;;;;;;;;;;;;20.74;50.81;99525.66;5382278;26;34595;-86
2022/05/17 01:30:03;;;;;;;;;;;;;;;20.76;50.87;99525.56;5383489;26;33948;-86
2022/05/17 01:32:32;;;;;;;;;;;;;;;20.71;51.03;99528.47;5384399;26;34459;-86
2022/05/17 01:35:00;;;;;;;;;;;;;;;20.79;50.59;99531.50;5382254;26;32925;-85
2022/05/17 01:37:29;;;;;;;;;;;;;;;20.77;50.53;99528.09;5382510;26;34216;-87
2022/05/17 01:39:59;;;;;;;;;;;;;;;20.88;50.65;99517.78;5387248;26;34963;-85
2022/05/17 01:42:27;;;;;;;;;;;;;;;20.87;50.47;99523.13;5381996;26;34224;-85
2022/05/17 01:44:56;;;;;;;;;;;;;;;20.93;50.38;99527.22;5382032;26;33731;-85
2022/05/17 01:47:25;;;;;;;;;;;;;;;20.89;50.36;99527.38;5381580;26;35057;-86
2022/05/17 01:49:53;;;;;;;;;;;;;;;20.85;50.46;99520.63;5392064;26;35030;-85
2022/05/17 01:52:22;;;;;;;;;;;;;;;20.72;51.06;99514.34;5396046;26;35109;-85
2022/05/17 01:54:50;;;;;;;;;;;;;;;20.87;50.73;99515.22;5382326;26;33023;-86
2022/05/17 01:57:20;;;;;;;;;;;;;;;20.91;50.57;99511.47;5381664;26;34263;-85
2022/05/17 01:59:49;;;;;;;;;;;;;;;20.85;50.81;99512.69;5381303;26;33400;-85
2022/05/17 02:02:17;;;;;;;;;;;;;;;20.74;51.22;99519.53;5382528;26;33897;-85
2022/05/17 02:04:46;;;;;;;;;;;;;;;20.80;51.18;99517.41;5367797;26;32625;-86
2022/05/17 02:07:15;;;;;;;;;;;;;;;20.86;51.10;99522.31;5381523;26;34243;-85
2022/05/17 02:09:43;;;;;;;;;;;;;;;20.73;51.30;99520.44;5381411;26;34148;-86
2022/05/17 02:12:12;;;;;;;;;;;;;;;20.54;52.01;99512.72;5382106;26;33867;-87
2022/05/17 02:14:42;;;;;;;;;;;;;;;20.85;50.87;99514.47;5379796;26;33151;-86
2022/05/17 02:17:10;;;;;;;;;;;;;;;20.81;50.69;99513.81;5387529;26;34878;-86
2022/05/17 02:19:40;;;;;;;;;;;;;;;20.83;50.62;99514.56;5384454;26;34813;-85
2022/05/17 02:22:08;;;;;;;;;;;;;;;20.91;51.63;99514.13;5381476;26;34546;-85
2022/05/17 02:24:39;;;;;;;;;;;;;;;20.96;51.76;99508.59;5382143;26;33174;-85
2022/05/17 02:27:08;;;;;;;;;;;;;;;20.96;51.73;99506.78;5381601;26;34835;-85
2022/05/17 02:29:37;;;;;;;;;;;;;;;21.02;51.47;99502.94;5384130;26;34961;-86
2022/05/17 02:32:07;;;;;;;;;;;;;;;21.09;51.34;99512.16;5387194;26;35011;-85
2022/05/17 02:34:36;;;;;;;;;;;;;;;21.22;50.51;99499.13;5382214;26;32843;-85
2022/05/17 02:37:05;;;;;;;;;;;;;;;21.21;50.32;99514.06;5381421;26;33680;-86
2022/05/17 02:39:34;;;;;;;;;;;;;;;21.48;48.95;99510.75;5361512;26;33377;-86
2022/05/17 02:42:02;;;;;;;;;;;;;;;21.35;50.07;99518.53;5381845;26;33704;-86
2022/05/17 02:44:31;;;;;;;;;;;;;;;21.29;49.84;99516.28;5387271;26;34267;-85
2022/05/17 02:47:00;;;;;;;;;;;;;;;21.34;50.35;99511.56;5381924;26;34240;-86
2022/05/17 02:49:30;;;;;;;;;;;;;;;21.46;50.28;99517.94;5381516;26;33770;-86
2022/05/17 02:52:00;;;;;;;;;;;;;;;21.57;49.28;99522.53;5381353;26;35010;-86
2022/05/17 02:54:29;;;;;;;;;;;;;;;21.49;49.37;99526.50;5381901;26;33222;-86
2022/05/17 02:57:01;;;;;;;;;;;;;;;21.36;49.67;99517.59;5387071;26;34817;-85
2022/05/17 02:59:30;;;;;;;;;;;;;;;21.25;50.60;99523.50;5380737;26;35164;-87
2022/05/17 03:01:59;;;;;;;;;;;;;;;21.42;50.35;99521.69;5381409;26;33974;-86
2022/05/17 03:04:28;;;;;;;;;;;;;;;21.67;48.73;99518.38;5382367;26;33103;-86
2022/05/17 03:06:59;;;;;;;;;;;;;;;21.42;50.29;99519.88;5381497;26;34879;-86
2022/05/17 03:09:27;;;;;;;;;;;;;;;21.26;50.36;99537.53;5361348;26;33640;-86
2022/05/17 03:11:55;;;;;;;;;;;;;;;20.88;51.48;99536.25;5386896;26;34399;-86
2022/05/17 03:14:24;;;;;;;;;;;;;;;20.82;51.86;99535.75;5381635;26;33348;-85
2022/05/17 03:16:53;;;;;;;;;;;;;;;20.55;52.93;99546.06;5381342;26;34849;-86
2022/05/17 03:19:21;;;;;;;;;;;;;;;20.52;53.74;99540.97;5380650;26;34373;-86
2022/05/17 03:21:50;;;;;;;;;;;;;;;20.70;53.53;99534.66;5381458;26;34266;-86
2022/05/17 03:24:20;;;;;;;;;;;;;;;20.79;53.27;99538.56;5386670;26;33307;-86
2022/05/17 03:27:11;;;;;;;;;;;;;;;20.85;52.92;99546.97;5386165;26;34033;-86
2022/05/17 03:29:40;;;;;;;;;;;;;;;20.83;52.79;99551.50;5381304;26;34005;-86
2022/05/17 03:32:10;;;;;;;;;;;;;;;21.05;52.17;99550.25;5379981;26;34391;-86
2022/05/17 03:34:38;;;;;;;;;;;;;;;20.99;52.25;99551.44;5381601;26;32666;-86
2022/05/17 03:37:07;;;;;;;;;;;;;;;21.21;51.96;99548.38;5381746;26;34102;-86
2022/05/17 03:39:37;;;;;;;;;;;;;;;21.25;52.05;99547.25;5387360;26;34228;-86
2022/05/17 03:42:09;;;;;;;;;;;;;;;21.28;51.46;99544.44;5381227;26;34497;-86
2022/05/17 03:44:38;;;;;;;;;;;;;;;21.38;51.36;99547.38;5381545;26;33406;-86
2022/05/17 03:47:07;;;;;;;;;;;;;;;21.30;51.56;99542.56;5381315;26;34557;-87
2022/05/17 03:49:38;;;;;;;;;;;;;;;21.42;50.87;99548.06;5381201;26;33388;-86
2022/05/17 03:52:09;;;;;;;;;;;;;;;21.50;50.18;99543.16;5386452;26;34656;-86
2022/05/17 03:54:39;;;;;;;;;;;;;;;21.36;50.53;99545.75;5383679;26;33230;-86
2022/05/17 03:57:08;;;;;;;;;;;;;;;21.65;50.14;99536.09;5381168;26;34611;-86
2022/05/17 03:59:40;;;;;;;;;;;;;;;21.50;50.57;99540.53;5380830;26;34366;-85
2022/05/17 04:02:08;;;;;;;;;;;;;;;21.52;50.43;99534.22;5381962;26;34787;-87
2022/05/17 04:04:37;;;;;;;;;;;;;;;21.58;49.50;99530.38;5382332;26;33398;-86
2022/05/17 04:07:06;;;;;;;;;;;;;;;21.63;49.88;99536.22;5387088;26;34769;-86
2022/05/17 04:09:34;;;;;;;;;;;;;;;21.51;49.98;99536.97;5380272;26;33861;-86
2022/05/17 04:12:05;;;;;;;;;;;;;;;21.64;50.03;99535.25;5382257;26;34370;-86
2022/05/17 04:14:34;;;;;;;;;;;;;;;21.93;48.90;99545.81;5380758;26;33389;-86
2022/05/17 04:17:03;;;;;;;;;;;;;;;21.86;49.16;99534.78;5382177;26;34287;-86
2022/05/17 04:19:32;;;;;;;;;;;;;;;21.86;49.87;99537.41;5388214;26;35087;-86
2022/05/17 04:22:00;;;;;;;;;;;;;;;22.03;49.38;99540.81;5381774;26;33918;-86
2022/05/17 04:24:31;;;;;;;;;;;;;;;22.03;47.65;99533.72;5382035;26;33658;-86
2022/05/17 04:26:59;;;;;;;;;;;;;;;22.19;46.72;99530.13;5382201;26;33774;-86
2022/05/17 04:29:29;;;;;;;;;;;;;;;22.22;48.64;99536.06;5381561;26;34292;-86
2022/05/17 04:31:58;;;;;;;;;;;;;;;22.06;47.42;99536.19;5387695;26;33295;-86
2022/05/17 04:34:31;;;;;;;;;;;;;;;22.27;47.49;99539.28;5381604;26;33728;-86
2022/05/17 04:36:59;;;;;;;;;;;;;;;22.49;46.40;99533.44;5382304;26;34781;-86
2022/05/17 04:39:28;;;;;;;;;;;;;;;22.33;46.79;99532.78;5381916;26;34853;-86
2022/05/17 04:41:56;;;;;;;;;;;;;;;22.24;47.12;99528.91;5381803;26;34157;-86
2022/05/17 04:44:25;;;;;;;;;;;;;;;22.08;47.32;99531.62;5388304;26;33121;-86
2022/05/17 04:46:55;;;;;;;;;;;;;;;21.81;48.17;99521.03;5385854;26;34735;-87
2022/05/17 04:49:23;;;;;;;;;;;;;;;21.74;48.97;99528.47;5382125;26;33856;-86
2022/05/17 04:51:53;;;;;;;;;;;;;;;21.87;48.48;99536.50;5381445;26;33619;-86
2022/05/17 04:54:22;;;;;;;;;;;;;;;21.80;48.89;99529.91;5385899;26;33286;-87
2022/05/17 04:56:51;;;;;;;;;;;;;;;21.85;49.13;99532.25;5381757;26;33858;-87
2022/05/17 04:59:24;;;;;;;;;;;;;;;21.89;49.54;99545.19;5388056;26;34944;-86
2022/05/17 05:01:52;;;;;;;;;;;;;;;22.14;48.73;99541.81;5382357;26;33771;-87
2022/05/17 05:04:22;;;;;;;;;;;;;;;22.11;49.58;99538.53;5381759;26;33110;-86
2022/05/17 05:06:51;;;;;;;;;;;;;;;22.35;48.13;99529.06;5382266;26;34977;-87
2022/05/17 05:09:20;;;;;;;;;;;;;;;22.27;48.25;99528.69;5380036;26;34312;-87
2022/05/17 05:11:49;;;;;;;;;;;;;;;22.45;47.63;99534.63;5385186;26;33881;-86
2022/05/17 05:14:17;;;;;;;;;;;;;;;22.41;47.57;99534.91;5380505;26;33365;-87
2022/05/17 05:16:46;;;;;;;;;;;;;;;22.36;46.62;99537.84;5382087;26;35032;-87
2022/05/17 05:19:17;;;;;;;;;;;;;;;22.12;47.28;99525.22;5381818;26;34147;-86
2022/05/17 05:21:47;;;;;;;;;;;;;;;21.92;47.49;99533.56;5382031;26;34516;-87
2022/05/17 05:24:16;;;;;;;;;;;;;;;22.30;46.87;99536.47;5387434;26;34077;-87
2022/05/17 05:26:45;;;;;;;;;;;;;;;22.15;47.54;99532.09;5382742;26;34983;-87
2022/05/17 05:29:13;;;;;;;;;;;;;;;22.07;47.55;99547.59;5381906;26;34616;-87
2022/05/17 05:31:42;;;;;;;;;;;;;;;22.07;47.46;99540.53;5382066;26;34075;-87
2022/05/17 05:34:11;;;;;;;;;;;;;;;22.10;47.91;99542.97;5382000;26;33329;-87
2022/05/17 05:36:39;;;;;;;;;;;;;;;22.15;47.62;99546.16;5382927;26;33131;-87
2022/05/17 05:39:09;;;;;;;;;;;;;;;21.96;48.22;99550.91;5387685;26;35143;-87
2022/05/17 05:41:38;;;;;;;;;;;;;;;21.89;48.24;99539.91;5381733;26;34303;-87
2022/05/17 05:44:07;;;;;;;;;;;;;;;21.97;47.83;99541.22;5380781;26;33311;-86
2022/05/17 05:46:35;;;;;;;;;;;;;;;21.95;48.36;99538.66;5380402;26;33530;-87
2022/05/17 05:49:04;;;;;;;;;;;;;;;22.06;47.77;99548.53;5381601;26;33857;-87
2022/05/17 05:51:33;;;;;;;;;;;;;;;22.20;47.26;99537.09;5387292;26;34543;-86
2022/05/17 05:54:01;;;;;;;;;;;;;;;22.44;47.52;99540.00;5381065;26;33214;-87
2022/05/17 05:56:31;;;;;;;;;;;;;;;22.19;48.05;99540.69;5381174;26;33805;-86
2022/05/17 05:59:00;;;;;;;;;;;;;;;22.51;47.30;99536.00;5381290;26;34297;-87
2022/05/17 06:01:29;;;;;;;;;;;;;;;22.58;47.59;99543.44;5382437;26;34202;-87
2022/05/17 06:03:58;;;;;;;;;;;;;;;22.43;48.26;99548.88;5388083;26;33786;-87
2022/05/17 06:06:27;;;;;;;;;;;;;;;22.58;47.74;99553.16;5382519;26;33545;-87
2022/05/17 06:08:55;;;;;;;;;;;;;;;22.52;48.16;99557.06;5382124;26;33979;-86
2022/05/17 06:11:24;;;;;;;;;;;;;;;22.51;49.14;99547.41;5382467;26;34241;-88
2022/05/17 06:13:54;;;;;;;;;;;;;;;22.42;49.17;99555.94;5382169;26;33708;-86
2022/05/17 06:16:24;;;;;;;;;;;;;;;22.68;49.56;99563.97;5386959;26;33329;-87
2022/05/17 06:18:54;;;;;;;;;;;;;;;22.55;50.49;99553.38;5384786;26;35092;-87
2022/05/17 06:21:22;;;;;;;;;;;;;;;22.54;50.17;99562.22;5381729;26;33462;-87
2022/05/17 06:23:51;;;;;;;;;;;;;;;22.57;50.62;99559.41;5381769;26;33064;-87
2022/05/17 06:26:19;;;;;;;;;;;;;;;22.31;51.40;99566.37;5361614;26;32925;-86
2022/05/17 06:28:48;;;;;;;;;;;;;;;22.61;51.01;99570.62;5382217;26;33945;-86
2022/05/17 06:31:18;;;;;;;;;;;;;;;22.61;51.07;99567.97;5388043;26;34115;-87
2022/05/17 06:33:47;;;;;;;;;;;;;;;22.61;51.28;99565.34;5382266;26;32665;-86
2022/05/17 06:36:15;;;;;;;;;;;;;;;22.56;51.32;99560.34;5382104;26;34133;-87
2022/05/17 06:39:08;;;;;;;;;;;;;;;22.87;50.49;99566.28;5381649;26;34393;-87
2022/05/17 06:41:37;;;;;;;;;;;;;;;22.97;50.83;99570.84;5381597;26;34464;-87
2022/05/17 06:44:06;;;;;;;;;;;;;;;22.89;50.98;99570.50;5383808;26;33454;-87
2022/05/17 06:46:37;;;;;;;;;;;;;;;22.67;51.02;99573.72;5387735;26;34177;-87
2022/05/17 06:49:06;;;;;;;;;;;;;;;22.80;50.88;99574.59;5382203;26;33027;-88
2022/05/17 06:51:35;;;;;;;;;;;;;;;23.09;51.30;99578.97;5382077;26;33766;-87
2022/05/17 06:54:04;;;;;;;;;;;;;;;22.96;51.07;99578.91;5382082;26;34019;-86
2022/05/17 06:56:35;;;;;;;;;;;;;;;23.14;50.82;99579.50;5380745;26;33899;-87
2022/05/17 06:59:04;;;;;;;;;;;;;;;23.47;50.18;99580.81;5386217;26;34498;-87
2022/05/17 07:01:33;;;;;;;;;;;;;;;23.37;50.25;99576.16;5383580;26;34018;-87
2022/05/17 07:04:03;;;;;;;;;;;;;;;23.50;49.42;99570.00;5381230;26;33037;-87
2022/05/17 07:06:31;;;;;;;;;;;;;;;23.71;49.57;99567.69;5381353;26;34111;-87
2022/05/17 07:09:00;;;;;;;;;;;;;;;23.78;49.03;99571.63;5381544;26;34953;-86
2022/05/17 07:14:12;;;;;;;;;;;;;;;23.36;49.89;99568.28;5350873;26;32751;-88
2022/05/17 07:16:40;;;;;;;;;;;;;;;23.06;50.32;99571.22;5381766;26;33632;-87
2022/05/17 07:19:10;;;;;;;;;;;;;;;23.04;51.19;99567.84;5382988;26;34213;-87
2022/05/17 07:22:00;;;;;;;;;;;;;;;23.17;50.74;99573.97;5381713;26;34811;-87
2022/05/17 07:24:29;;;;;;;;;;;;;;;23.25;49.86;99568.19;5382236;26;34189;-87
2022/05/17 07:26:58;;;;;;;;;;;;;;;23.40;50.26;99565.34;5387506;26;34309;-87
2022/05/17 07:29:47;;;;;;;;;;;;;;;23.39;50.63;99568.13;5387817;26;34750;-87
2022/05/17 07:32:15;;;;;;;;;;;;;;;23.58;49.78;99580.91;5382396;26;34594;-88
2022/05/17 07:34:47;;;;;;;;;;;;;;;23.67;49.34;99572.34;5381747;26;33549;-87
2022/05/17 07:37:16;;;;;;;;;;;;;;;23.55;49.80;99581.13;5382799;26;33854;-88
2022/05/17 07:39:45;;;;;;;;;;;;;;;23.35;50.66;99585.16;5381941;26;34359;-88
2022/05/17 07:42:13;;;;;;;;;;;;;;;23.19;51.31;99578.22;5367046;26;33093;-87
2022/05/17 07:44:42;;;;;;;;;;;;;;;23.24;50.98;99583.22;5381737;26;33035;-88
2022/05/17 07:47:16;;;;;;;;;;;;;;;23.09;51.55;99584.25;5381843;26;33980;-87
2022/05/17 07:49:46;;;;;;;;;;;;;;;22.80;52.88;99581.69;5382178;26;35034;-88
2022/05/17 07:52:15;;;;;;;;;;;;;;;23.18;52.59;99581.84;5383306;26;34207;-88
2022/05/17 07:54:47;;;;;;;;;;;;;;;22.90;52.62;99584.59;5382300;26;32831;-87
2022/05/17 07:57:16;;;;;;;;;;;;;;;22.96;52.68;99581.53;5387969;26;33671;-87
2022/05/17 07:59:44;;;;;;;;;;;;;;;22.86;53.13;99581.31;5382557;26;35017;-87
2022/05/17 08:02:13;;;;;;;;;;;;;;;22.75;53.42;99586.44;5382799;26;33221;-87
2022/05/17 08:04:41;;;;;;;;;;;;;;;22.39;54.54;99590.50;5382742;26;33378;-87
2022/05/17 08:07:11;;;;;;;;;;;;;;;22.56;54.44;99586.78;5382966;26;33936;-87
2022/05/17 08:09:40;;;;;;;;;;;;;;;22.46;54.89;99585.69;5388184;26;34347;-87
2022/05/17 08:12:10;;;;;;;;;;;;;;;22.46;54.82;99596.25;5382726;26;34108;-87
2022/05/17 08:14:40;;;;;;;;;;;;;;;22.36;55.28;99602.13;5381363;26;33087;-88
2022/05/17 08:17:09;;;;;;;;;;;;;;;22.54;55.18;99596.59;5382360;26;34392;-87
2022/05/17 08:19:38;;;;;;;;;;;;;;;22.75;54.40;99604.94;5382584;26;32889;-88
2022/05/17 08:22:07;;;;;;;;;;;;;;;22.61;54.71;99597.91;5387894;26;34039;-89
2022/05/17 08:27:32;;;;;;;;;;;;;;;22.55;54.75;99599.16;5381466;26;34921;-87
2022/05/17 08:30:01;;;;;;;;;;;;;;;22.58;54.02;99609.53;5382973;26;35121;-87
2022/05/17 08:35:16;;;;;;;;;;;;;;;22.10;55.48;99616.94;5383159;26;33354;-87
2022/05/17 08:37:45;;;;;;;;;;;;;;;21.99;56.01;99624.69;5361642;26;33118;-87
2022/05/17 08:40:17;;;;;;;;;;;;;;;21.73;56.66;99631.56;5388401;26;33399;-87
2022/05/17 08:42:47;;;;;;;;;;;;;;;21.68;56.62;99626.53;5382034;26;34470;-87
2022/05/17 08:45:17;;;;;;;;;;;;;;;21.68;56.92;99633.63;5382623;26;32961;-88
2022/05/17 08:47:51;;;;;;;;;;;;;;;21.59;56.72;99620.97;5382566;26;34307;-87
2022/05/17 08:50:30;;;;;;;;;;;;;;;21.89;55.63;99634.09;5382676;26;34335;-87
2022/05/17 08:52:58;;;;;;;;;;;;;;;21.45;57.03;99621.78;5382627;26;33806;-87
2022/05/17 08:55:29;;;;;;;;;;;;;;;21.40;57.72;99632.59;5387876;26;33069;-86
2022/05/17 08:57:58;;;;;;;;;;;;;;;21.43;58.96;99631.56;5382178;26;34483;-85
2022/05/17 09:00:32;;;;;;;;;;;;;;;21.40;61.04;99624.69;5381924;26;34966;-83
2022/05/17 09:03:02;;;;;;;;;;;;;;;21.03;64.00;99636.50;5382389;26;34282;-82
2022/05/17 09:05:33;;;;;;;;;;;;;;;20.53;66.75;99653.34;5382287;26;34156;-83
2022/05/17 09:08:07;;;;;;;;;;;;;;;20.44;68.97;99649.41;5387566;26;33404;-82
2022/05/17 09:10:38;;;;;;;;;;;;;;;20.27;69.84;99645.06;5382094;26;34027;-83
2022/05/17 09:13:09;;;;;;;;;;;;;;;20.16;69.85;99636.91;5381964;26;34124;-83
2022/05/17 09:15:38;;;;;;;;;;;;;;;19.82;72.51;99644.78;5382079;26;33408;-83
2022/05/17 09:18:10;;;;;;;;;;;;;;;19.96;72.45;99644.09;5381950;26;33792;-84
2022/05/17 09:20:39;;;;;;;;;;;;;;;19.85;72.91;99642.94;5382199;26;35275;-84
2022/05/17 09:23:08;;;;;;;;;;;;;;;20.11;72.07;99644.22;5388072;26;35058;-84
2022/05/17 09:25:49;;;;;;;;;;;;;;;19.98;73.00;99638.72;5382286;26;33135;-84
2022/05/17 09:28:18;;;;;;;;;;;;;;;20.04;73.85;99636.63;5382564;26;33798;-84
2022/05/17 09:30:48;;;;;;;;;;;;;;;20.01;75.26;99639.41;5382267;26;33200;-84
2022/05/17 09:33:21;;;;;;;;;;;;;;;20.59;71.31;99645.16;5382204;26;34415;-84
2022/05/17 09:35:57;;;;;;;;;;;;;;;20.43;72.31;99638.03;5385207;26;33447;-85
2022/05/17 09:38:26;;;;;;;;;;;;;;;20.57;72.48;99634.69;5388043;26;34004;-84
2022/05/17 09:41:01;;;;;;;;;;;;;;;20.56;73.33;99632.12;5382244;26;35229;-85
2022/05/17 09:43:36;;;;;;;;;;;;;;;21.07;69.35;99638.91;5381668;26;34425;-85
2022/05/17 09:46:09;;;;;;;;;;;;;;;21.14;67.71;99636.72;5382701;26;33966;-84
2022/05/17 09:54:10;;;;;;;;;;;;;;;21.16;66.34;99626.94;5358264;26;780041;-84
2022/05/17 09:56:41;;;;;;;;;;;;;;;20.99;68.02;99629.69;5385755;26;33461;-84
2022/05/17 09:59:21;;;;;;;;;;;;;;;21.18;66.13;99632.97;5381947;26;33874;-85
2022/05/17 10:01:49;;;;;;;;;;;;;;;21.20;65.54;99625.84;5382395;26;35082;-85
2022/05/17 10:04:19;;;;;;;;;;;;;;;21.23;66.32;99624.81;5361836;26;34206;-85
2022/05/17 10:06:48;;;;;;;;;;;;;;;21.29;65.96;99621.81;5381564;26;33664;-86
2022/05/17 10:09:27;;;;;;;;;;;;;;;21.37;66.05;99626.66;5385492;26;34454;-86
2022/05/17 10:11:58;;;;;;;;;;;;;;;20.98;66.97;99631.50;5378973;26;34297;-87
2022/05/17 10:14:31;;;;;;;;;;;;;;;21.35;66.89;99631.16;5380581;26;33052;-87
2022/05/17 10:17:01;;;;;;;;;;;;;;;21.79;65.88;99627.69;5379821;26;33452;-87
2022/05/17 10:19:37;;;;;;;;;;;;;;;21.88;64.67;99622.69;5380311;26;34065;-87
2022/05/17 10:22:08;;;;;;;;;;;;;;;21.35;66.11;99621.44;5381940;26;34217;-87
2022/05/17 10:24:38;;;;;;;;;;;;;;;21.82;65.25;99622.22;5387814;26;33546;-87
2022/05/17 10:27:10;;;;;;;;;;;;;;;21.72;66.74;99621.91;5381871;26;32602;-86
2022/05/17 10:29:40;;;;;;;;;;;;;;;21.85;65.79;99619.41;5382510;26;34838;-87
2022/05/17 10:32:09;;;;;;;;;;;;;;;22.07;64.78;99622.41;5381310;26;34941;-86
2022/05/17 10:34:59;;;;;;;;;;;;;;;22.03;63.73;99620.06;5381870;26;33892;-87
2022/05/17 10:37:28;;;;;;;;;;;;;;;21.97;62.98;99625.72;5381918;26;32553;-87
2022/05/17 10:39:58;;;;;;;;;;;;;;;22.13;62.52;99613.25;5387707;26;34508;-87
2022/05/17 10:42:28;;;;;;;;;;;;;;;22.06;63.95;99618.09;5381819;26;34740;-86
2022/05/17 10:44:58;;;;;;;;;;;;;;;22.20;63.47;99621.66;5381923;26;33947;-87
2022/05/17 10:47:30;;;;;;;;;;;;;;;22.21;62.47;99620.75;5382210;26;33895;-87
2022/05/17 10:50:04;;;;;;;;;;;;;;;21.90;63.23;99627.87;5381779;26;34172;-87
2022/05/17 10:52:35;;;;;;;;;;;;;;;22.19;62.70;99620.81;5382590;26;33932;-88
2022/05/17 10:55:05;;;;;;;;;;;;;;;22.40;62.25;99626.59;5387758;26;34278;-87
2022/05/17 10:57:37;;;;;;;;;;;;;;;22.49;62.54;99625.97;5381739;26;33273;-87
2022/05/17 11:00:09;;;;;;;;;;;;;;;22.58;61.34;99620.09;5380938;26;34301;-87
2022/05/17 11:02:46;;;;;;;;;;;;;;;22.61;61.52;99612.94;5381347;26;34135;-87
2022/05/17 11:05:18;;;;;;;;;;;;;;;22.19;61.72;99622.59;5381747;26;33708;-87
2022/05/17 11:07:49;;;;;;;;;;;;;;;22.80;59.07;99616.91;5387410;26;33594;-87
2022/05/17 11:10:22;;;;;;;;;;;;;;;22.93;59.91;99616.12;5386972;26;34221;-88
2022/05/17 11:12:53;;;;;;;;;;;;;;;22.29;60.80;99615.81;5381291;26;34185;-86
2022/05/17 11:15:23;;;;;;;;;;;;;;;22.96;58.00;99615.94;5381804;26;33910;-87
2022/05/17 11:17:54;;;;;;;;;;;;;;;22.60;59.46;99606.78;5382168;26;33446;-87
2022/05/17 11:20:24;;;;;;;;;;;;;;;23.00;58.89;99606.84;5380620;26;34437;-87
2022/05/17 11:22:54;;;;;;;;;;;;;;;23.10;57.64;99599.16;5386406;26;34036;-87
2022/05/17 11:25:44;;;;;;;;;;;;;;;22.93;57.99;99595.81;5381187;26;33202;-86
2022/05/17 11:28:24;;;;;;;;;;;;;;;23.26;58.16;99596.34;5344717;26;33443;-88
2022/05/17 11:30:55;;;;;;;;;;;;;;;23.33;57.84;99600.28;5381881;26;33629;-88
2022/05/17 11:33:34;;;;;;;;;;;;;;;23.28;56.88;99597.94;5381648;26;34375;-87
2022/05/17 11:36:04;;;;;;;;;;;;;;;23.27;57.42;99585.66;5376717;26;34155;-87
2022/05/17 11:38:52;;;;;;;;;;;;;;;23.68;55.40;99589.94;5381612;26;33376;-87
2022/05/17 11:41:22;;;;;;;;;;;;;;;23.47;57.00;99581.66;5386651;26;34204;-88
2022/05/17 11:44:08;;;;;;;;;;;;;;;23.43;56.01;99585.47;5380847;26;34647;-87
2022/05/17 11:46:49;;;;;;;;;;;;;;;23.48;55.79;99579.84;5381153;26;34524;-87
2022/05/17 11:49:24;;;;;;;;;;;;;;;23.21;55.47;99573.69;5380916;26;33033;-88
2022/05/17 11:52:12;;;;;;;;;;;;;;;23.37;55.52;99577.94;5380696;26;35122;-87
2022/05/17 11:54:42;;;;;;;;;;;;;;;23.62;54.15;99566.50;5380458;26;34166;-87
2022/05/17 11:57:15;;;;;;;;;;;;;;;23.38;55.13;99572.53;5380978;26;34689;-87
2022/05/17 11:59:45;;;;;;;;;;;;;;;23.26;56.66;99568.06;5386693;26;33289;-88
2022/05/17 12:02:17;;;;;;;;;;;;;;;23.68;55.01;99557.28;5381478;26;34047;-87
2022/05/17 12:04:46;;;;;;;;;;;;;;;23.44;57.01;99566.00;5380665;26;33593;-87
2022/05/17 12:07:27;;;;;;;;;;;;;;;23.66;57.48;99570.66;5360412;26;32995;-87
2022/05/17 12:09:57;;;;;;;;;;;;;;;23.68;56.18;99566.09;5381523;26;32927;-88
2022/05/17 12:12:28;;;;;;;;;;;;;;;23.77;58.09;99564.63;5381129;26;34269;-87
2022/05/17 12:15:04;;;;;;;;;;;;;;;24.18;55.28;99566.16;5386528;26;33689;-87
2022/05/17 12:17:36;;;;;;;;;;;;;;;24.27;54.33;99561.03;5380644;26;34108;-87
2022/05/17 12:20:10;;;;;;;;;;;;;;;24.39;53.48;99559.31;5380430;26;34129;-87
2022/05/17 12:22:39;;;;;;;;;;;;;;;24.12;53.94;99558.66;5381009;26;33663;-87
2022/05/17 12:25:09;;;;;;;;;;;;;;;23.91;54.41;99561.03;5381018;26;34680;-87
2022/05/17 12:27:40;;;;;;;;;;;;;;;23.47;54.87;99563.12;5381337;26;33695;-87
2022/05/17 12:33:03;;;;;;;;;;;;;;;24.06;53.66;99554.62;5380599;26;33832;-88
2022/05/17 12:35:32;;;;;;;;;;;;;;;23.96;53.74;99554.44;5381745;26;33884;-87
2022/05/17 12:38:00;;;;;;;;;;;;;;;24.16;54.63;99553.03;5385474;26;34854;-88
2022/05/17 12:43:24;;;;;;;;;;;;;;;24.15;53.67;99540.72;5382295;26;34169;-88
2022/05/17 12:45:52;;;;;;;;;;;;;;;24.05;53.60;99547.62;5387754;26;33294;-88
2022/05/17 12:48:34;;;;;;;;;;;;;;;23.97;53.52;99542.03;5388423;26;34541;-87
2022/05/17 12:51:04;;;;;;;;;;;;;;;23.64;54.35;99532.84;5381961;26;32605;-88
2022/05/17 12:53:37;;;;;;;;;;;;;;;23.68;54.50;99539.62;5381953;26;33584;-88
2022/05/17 12:56:08;;;;;;;;;;;;;;;23.63;55.17;99532.00;5382860;26;33583;-87
2022/05/17 12:58:37;;;;;;;;;;;;;;;23.69;55.07;99529.88;5381517;26;34363;-88
2022/05/17 13:01:07;;;;;;;;;;;;;;;23.55;53.60;99522.88;5387962;26;34233;-88
2022/05/17 13:03:42;;;;;;;;;;;;;;;23.57;54.03;99526.25;5382037;26;34954;-88
2022/05/17 13:06:11;;;;;;;;;;;;;;;23.38;54.04;99532.81;5382108;26;34042;-88
2022/05/17 13:08:40;;;;;;;;;;;;;;;23.53;53.16;99533.56;5382573;26;33881;-88
2022/05/17 13:11:11;;;;;;;;;;;;;;;23.14;54.17;99529.22;5382227;26;32576;-88
2022/05/17 13:13:41;;;;;;;;;;;;;;;23.24;54.10;99524.97;5382874;26;33759;-88
2022/05/17 13:16:10;;;;;;;;;;;;;;;23.36;54.33;99516.19;5366843;26;32982;-88
2022/05/17 13:18:41;;;;;;;;;;;;;;;23.35;54.19;99522.47;5381756;26;34515;-88
2022/05/17 13:21:13;;;;;;;;;;;;;;;22.84;55.97;99521.53;5381777;26;34092;-88
2022/05/17 13:23:41;;;;;;;;;;;;;;;22.95;54.63;99519.84;5381854;26;34374;-88